Aviation Digital Data Service (ADDS)

Output produced by METARs form (1823 UTC 22 November 2017)
found at http://www.aviationweather.gov/adds/metars/
 
TAF WPDL 221707Z 2218/2306 15005KT CAVOK 
     FM230000 36008KT 9999 SCT030 
     PROB30 
     TEMPO 2305/2306 VRB20G40KT 1000 TSRA BKN010 SCT020CB